createdAt,value
2023-05-17T00:00:20.498Z,16.20
2023-05-17T00:03:09.331Z,16.30
2023-05-17T00:05:58.172Z,16.20
2023-05-17T00:08:48.426Z,16.20
2023-05-17T00:11:37.393Z,16.30
2023-05-17T00:14:26.235Z,16.20
2023-05-17T00:17:14.917Z,16.20
2023-05-17T00:20:07.797Z,16.10
2023-05-17T00:22:56.737Z,16.10
2023-05-17T00:25:46.902Z,16.00
2023-05-17T00:28:36.090Z,16.00
2023-05-17T00:31:25.020Z,16.00
2023-05-17T00:34:13.718Z,16.00
2023-05-17T00:37:02.357Z,16.00
2023-05-17T00:39:51.170Z,16.00
2023-05-17T00:42:41.228Z,16.00
2023-05-17T00:45:30.307Z,16.00
2023-05-17T00:48:21.379Z,16.00
2023-05-17T00:51:10.956Z,15.80
2023-05-17T00:54:00.134Z,15.90
2023-05-17T00:56:49.575Z,15.90
2023-05-17T00:59:40.660Z,15.90
2023-05-17T01:02:29.739Z,15.80
2023-05-17T01:05:19.090Z,15.60
2023-05-17T01:08:07.831Z,15.70
2023-05-17T01:11:08.602Z,15.80
2023-05-17T01:14:04.034Z,15.80
2023-05-17T01:16:58.714Z,15.80
2023-05-17T01:19:56.268Z,15.70
2023-05-17T01:22:51.332Z,15.70
2023-05-17T01:25:54.292Z,15.70
2023-05-17T01:28:48.257Z,15.60
2023-05-17T01:31:38.550Z,15.60
2023-05-17T01:34:28.167Z,15.50
2023-05-17T01:37:19.288Z,15.60
2023-05-17T01:40:10.377Z,15.60
2023-05-17T01:43:06.218Z,15.50
2023-05-17T01:46:06.509Z,15.30
2023-05-17T01:49:07.839Z,15.30
2023-05-17T01:52:03.651Z,15.20
2023-05-17T01:54:57.593Z,15.20
2023-05-17T01:57:50.209Z,15.20
2023-05-17T02:00:40.863Z,15.20
2023-05-17T02:03:31.521Z,15.20
2023-05-17T02:06:20.376Z,15.20
2023-05-17T02:09:09.030Z,15.20
2023-05-17T02:11:57.794Z,15.10
2023-05-17T02:14:46.568Z,15.00
2023-05-17T02:17:35.323Z,14.60
2023-05-17T02:20:25.912Z,14.80
2023-05-17T02:23:14.565Z,14.70
2023-05-17T02:26:03.751Z,14.50
2023-05-17T02:28:52.719Z,14.70
2023-05-17T02:31:41.699Z,14.60
2023-05-17T02:34:30.817Z,14.50
2023-05-17T02:37:21.401Z,14.30
2023-05-17T02:40:10.992Z,14.20
2023-05-17T02:42:59.703Z,14.10
2023-05-17T02:45:48.551Z,14.00
2023-05-17T02:48:37.245Z,14.20
2023-05-17T02:51:25.977Z,14.00
2023-05-17T02:54:16.431Z,14.00
2023-05-17T02:57:05.451Z,14.20
2023-05-17T02:59:54.259Z,14.00
2023-05-17T03:02:43.117Z,13.90
2023-05-17T03:05:32.349Z,14.00
2023-05-17T03:08:21.107Z,14.10
2023-05-17T03:11:12.055Z,14.00
2023-05-17T03:14:00.963Z,13.90
2023-05-17T03:16:51.796Z,13.90
2023-05-17T03:19:41.103Z,13.90
2023-05-17T03:22:30.047Z,13.90
2023-05-17T03:25:20.988Z,13.90
2023-05-17T03:28:11.320Z,13.80
2023-05-17T03:31:00.212Z,13.70
2023-05-17T03:33:52.240Z,13.80
2023-05-17T03:36:41.811Z,13.70
2023-05-17T03:39:31.398Z,13.70
2023-05-17T03:42:21.512Z,13.70
2023-05-17T03:45:13.174Z,13.70
2023-05-17T03:48:02.249Z,13.50
2023-05-17T03:50:51.268Z,13.60
2023-05-17T03:53:43.407Z,13.50
2023-05-17T03:56:32.665Z,13.40
2023-05-17T03:59:21.473Z,13.50
2023-05-17T04:02:12.047Z,13.50
2023-05-17T04:05:01.054Z,13.60
2023-05-17T04:07:50.316Z,13.60
2023-05-17T04:10:42.108Z,13.60
2023-05-17T04:13:31.009Z,13.70
2023-05-17T04:16:19.951Z,13.60
2023-05-17T04:19:10.914Z,13.60
2023-05-17T04:21:59.837Z,13.70
2023-05-17T04:24:49.588Z,13.60
2023-05-17T04:27:39.129Z,13.70
2023-05-17T04:30:29.819Z,13.60
2023-05-17T04:33:19.149Z,13.50
2023-05-17T04:36:10.055Z,13.50
2023-05-17T04:39:00.249Z,13.50
2023-05-17T04:41:51.741Z,13.60
2023-05-17T04:44:41.568Z,13.50
2023-05-17T04:47:31.294Z,13.60
2023-05-17T04:50:20.475Z,13.50
2023-05-17T04:53:11.165Z,13.40
2023-05-17T04:56:00.370Z,13.40
2023-05-17T04:58:52.776Z,13.30
2023-05-17T05:01:42.065Z,13.50
2023-05-17T05:04:31.057Z,13.50
2023-05-17T05:07:19.828Z,13.50
2023-05-17T05:10:10.958Z,13.40
2023-05-17T05:13:00.609Z,13.50
2023-05-17T05:15:49.785Z,13.40
2023-05-17T05:18:39.045Z,13.40
2023-05-17T05:21:27.955Z,13.40
2023-05-17T05:24:17.780Z,13.50
2023-05-17T05:27:08.213Z,13.30
2023-05-17T05:29:58.577Z,13.40
2023-05-17T05:32:47.462Z,13.30
2023-05-17T05:35:36.807Z,13.30
2023-05-17T05:38:25.635Z,13.30
2023-05-17T05:41:14.695Z,13.50
2023-05-17T05:44:05.267Z,13.30
2023-05-17T05:46:54.173Z,13.40
2023-05-17T05:49:43.162Z,13.40
2023-05-17T05:52:32.526Z,13.40
2023-05-17T05:55:22.064Z,13.50
2023-05-17T05:58:10.943Z,13.50
2023-05-17T06:01:03.911Z,13.30
2023-05-17T06:03:54.775Z,13.30
2023-05-17T06:06:43.773Z,13.40
2023-05-17T06:09:32.805Z,13.40
2023-05-17T06:12:21.857Z,13.20
2023-05-17T06:15:12.029Z,13.30
2023-05-17T06:18:02.481Z,13.40
2023-05-17T06:20:51.384Z,13.40
2023-05-17T06:23:40.849Z,13.40
2023-05-17T06:26:29.608Z,13.40
2023-05-17T06:29:18.285Z,13.40
2023-05-17T06:32:08.396Z,13.50
2023-05-17T06:34:58.486Z,13.60
2023-05-17T06:37:47.159Z,13.50
2023-05-17T06:40:36.444Z,13.50
2023-05-17T06:43:25.517Z,13.50
2023-05-17T06:46:14.608Z,13.40
2023-05-17T06:49:04.569Z,13.40
2023-05-17T06:51:55.826Z,13.30
2023-05-17T06:54:46.993Z,13.30
2023-05-17T06:57:35.797Z,13.20
2023-05-17T07:00:25.680Z,13.20
2023-05-17T07:03:14.726Z,13.30
2023-05-17T07:06:03.853Z,13.20
2023-05-17T07:08:54.069Z,13.30
2023-05-17T07:11:42.798Z,13.40
2023-05-17T07:14:32.512Z,13.50
2023-05-17T07:17:21.230Z,13.40
2023-05-17T07:20:11.035Z,13.70
2023-05-17T07:23:00.046Z,13.70
2023-05-17T07:25:53.250Z,13.70
2023-05-17T07:28:42.402Z,13.60
2023-05-17T07:31:32.059Z,13.50
2023-05-17T07:34:21.018Z,13.60
2023-05-17T07:37:10.070Z,13.50
2023-05-17T07:39:58.962Z,13.50
2023-05-17T07:42:49.575Z,13.40
2023-05-17T07:45:38.339Z,13.30
2023-05-17T07:48:27.493Z,13.30
2023-05-17T07:51:16.286Z,13.40
2023-05-17T07:54:06.345Z,13.30
2023-05-17T07:56:56.091Z,13.40
2023-05-17T07:59:46.367Z,13.40
2023-05-17T08:02:35.133Z,13.40
2023-05-17T08:05:24.487Z,13.30
2023-05-17T08:08:13.150Z,13.30
2023-05-17T08:11:02.670Z,13.60
2023-05-17T08:13:51.565Z,13.50
2023-05-17T08:16:41.986Z,13.50
2023-05-17T08:19:31.117Z,13.50
2023-05-17T08:22:20.416Z,13.50
2023-05-17T08:25:09.924Z,13.40
2023-05-17T08:27:58.950Z,13.40
2023-05-17T08:30:47.683Z,13.60
2023-05-17T08:33:37.961Z,13.60
2023-05-17T08:36:26.998Z,13.70
2023-05-17T08:39:16.328Z,13.80
2023-05-17T08:42:09.050Z,13.70
2023-05-17T08:44:58.069Z,13.70
2023-05-17T08:47:47.287Z,13.90
2023-05-17T08:50:38.830Z,13.70
2023-05-17T08:53:28.138Z,13.60
2023-05-17T08:56:19.185Z,13.60
2023-05-17T08:59:10.465Z,13.80
2023-05-17T09:02:03.237Z,13.90
2023-05-17T09:04:55.761Z,13.80
2023-05-17T09:07:46.835Z,14.10
2023-05-17T09:10:35.799Z,13.80
2023-05-17T09:13:24.848Z,13.90
2023-05-17T09:16:17.822Z,13.80
2023-05-17T09:19:09.191Z,13.70
2023-05-17T09:22:02.513Z,13.80
2023-05-17T09:24:53.050Z,13.80
2023-05-17T09:27:41.845Z,13.80
2023-05-17T09:30:31.929Z,13.90
2023-05-17T09:33:22.945Z,13.80
2023-05-17T09:36:18.855Z,13.80
2023-05-17T09:39:12.297Z,14.00
2023-05-17T09:42:02.642Z,13.80
2023-05-17T09:44:53.432Z,13.80
2023-05-17T09:47:42.344Z,13.60
2023-05-17T09:50:34.837Z,13.70
2023-05-17T09:53:28.356Z,13.90
2023-05-17T09:56:20.302Z,13.90
2023-05-17T09:59:19.476Z,13.80
2023-05-17T10:02:16.592Z,13.70
2023-05-17T10:05:07.147Z,13.30
2023-05-17T10:07:57.644Z,13.40
2023-05-17T10:10:46.813Z,13.60
2023-05-17T10:13:39.268Z,13.50
2023-05-17T10:16:31.089Z,13.40
2023-05-17T10:19:21.592Z,13.40
2023-05-17T10:22:22.597Z,13.50
2023-05-17T10:25:13.656Z,13.30
2023-05-17T10:28:06.615Z,13.30
2023-05-17T10:30:55.854Z,13.30
2023-05-17T10:33:48.772Z,13.30
2023-05-17T10:36:38.663Z,13.30
2023-05-17T10:39:27.969Z,13.30
2023-05-17T10:42:19.027Z,13.20
2023-05-17T10:45:09.680Z,13.10
2023-05-17T10:48:00.918Z,13.30
2023-05-17T10:51:00.977Z,13.40
2023-05-17T10:54:08.776Z,13.60
2023-05-17T10:57:06.416Z,13.70
2023-05-17T11:00:00.221Z,13.60
2023-05-17T11:02:50.924Z,13.60
2023-05-17T11:05:43.892Z,13.60
2023-05-17T11:08:35.200Z,13.50
2023-05-17T11:11:25.405Z,13.40
2023-05-17T11:14:16.596Z,13.60
2023-05-17T11:17:14.926Z,13.60
2023-05-17T11:20:13.598Z,13.70
2023-05-17T11:23:35.608Z,13.80
2023-05-17T11:26:34.533Z,13.70
2023-05-17T11:29:31.060Z,13.60
2023-05-17T11:32:19.871Z,13.50
2023-05-17T11:35:13.262Z,13.10
2023-05-17T11:38:16.200Z,13.10
2023-05-17T11:44:14.647Z,13.20
2023-05-17T11:47:04.822Z,13.10
2023-05-17T11:49:56.513Z,13.00
2023-05-17T11:52:45.757Z,13.00
2023-05-17T11:55:36.044Z,13.00
2023-05-17T11:58:29.333Z,13.00
2023-05-17T12:01:18.081Z,13.30
2023-05-17T12:04:07.202Z,13.40
2023-05-17T12:06:56.812Z,13.50
2023-05-17T12:09:46.371Z,13.50
2023-05-17T12:12:35.132Z,13.30
2023-05-17T12:15:26.114Z,13.40
2023-05-17T12:18:15.327Z,13.30
2023-05-17T12:21:04.360Z,13.20
2023-05-17T12:23:54.005Z,13.30
2023-05-17T12:26:45.229Z,13.20
2023-05-17T12:29:34.780Z,13.20
2023-05-17T12:32:25.869Z,13.20
2023-05-17T12:35:15.231Z,13.20
2023-05-17T12:38:04.659Z,13.30
2023-05-17T12:40:53.580Z,13.30
2023-05-17T12:43:45.040Z,13.20
2023-05-17T12:46:34.148Z,13.30
2023-05-17T12:49:24.259Z,13.30
2023-05-17T12:52:13.538Z,13.40
2023-05-17T12:55:04.920Z,13.20
2023-05-17T12:57:55.505Z,13.30
2023-05-17T13:00:59.369Z,13.40
2023-05-17T13:03:52.566Z,13.30
2023-05-17T13:06:51.225Z,13.40
2023-05-17T13:09:49.204Z,13.50
2023-05-17T13:12:40.489Z,13.40
2023-05-17T13:15:33.481Z,13.50
2023-05-17T13:18:24.815Z,13.30
2023-05-17T13:21:13.955Z,13.40
2023-05-17T13:24:04.298Z,13.50
2023-05-17T13:26:53.000Z,13.40
2023-05-17T13:29:43.232Z,13.40
2023-05-17T13:32:32.632Z,13.40
2023-05-17T13:35:21.694Z,13.40
2023-05-17T13:38:10.465Z,13.30
2023-05-17T13:41:01.304Z,13.40
2023-05-17T13:43:50.435Z,13.50
2023-05-17T13:46:39.396Z,13.50
2023-05-17T13:49:28.560Z,13.50
2023-05-17T13:52:18.693Z,13.90
2023-05-17T13:55:08.863Z,14.20
2023-05-17T13:57:59.852Z,14.30
2023-05-17T14:00:51.574Z,14.10
2023-05-17T14:03:40.458Z,13.80
2023-05-17T14:06:29.604Z,13.80
2023-05-17T14:09:19.139Z,13.90
2023-05-17T14:12:08.653Z,13.90
2023-05-17T14:14:58.698Z,13.90
2023-05-17T14:17:47.734Z,13.60
2023-05-17T14:20:36.880Z,13.70
2023-05-17T14:23:26.378Z,13.60
2023-05-17T14:26:15.398Z,13.50
2023-05-17T14:29:05.752Z,13.50
2023-05-17T14:31:55.732Z,13.40
2023-05-17T14:34:44.547Z,13.40
2023-05-17T14:37:33.506Z,13.40
2023-05-17T14:40:22.453Z,13.50
2023-05-17T14:43:11.415Z,13.70
2023-05-17T14:46:00.201Z,13.80
2023-05-17T14:48:52.312Z,13.80
2023-05-17T14:51:41.194Z,13.90
2023-05-17T14:54:31.197Z,13.90
2023-05-17T14:57:21.610Z,14.00
2023-05-17T15:00:11.608Z,14.00
2023-05-17T15:03:00.648Z,13.90
2023-05-17T15:05:56.626Z,14.00
2023-05-17T15:08:45.275Z,13.90
2023-05-17T15:11:34.774Z,13.80
2023-05-17T15:14:24.611Z,13.80
2023-05-17T15:17:13.432Z,13.70
2023-05-17T15:20:02.493Z,13.70
2023-05-17T15:22:52.885Z,13.70
2023-05-17T15:25:42.122Z,13.60
2023-05-17T15:28:31.343Z,13.60
2023-05-17T15:31:20.123Z,13.60
2023-05-17T15:34:09.629Z,13.40
2023-05-17T15:36:58.497Z,13.50
2023-05-17T15:39:48.955Z,13.50
2023-05-17T15:42:37.750Z,13.50
2023-05-17T15:45:26.495Z,13.40
2023-05-17T15:48:15.299Z,13.60
2023-05-17T15:51:05.320Z,13.60
2023-05-17T15:53:54.602Z,13.50
2023-05-17T15:56:44.665Z,13.60
2023-05-17T15:59:33.725Z,13.60
2023-05-17T16:02:24.998Z,13.60
2023-05-17T16:05:14.025Z,13.70
2023-05-17T16:08:03.254Z,13.70
2023-05-17T16:10:52.160Z,13.70
2023-05-17T16:13:42.584Z,13.60
2023-05-17T16:16:31.522Z,13.50
2023-05-17T16:19:20.488Z,13.60
2023-05-17T16:22:09.669Z,13.60
2023-05-17T16:24:58.466Z,13.70
2023-05-17T16:27:47.948Z,13.70
2023-05-17T16:30:38.567Z,13.60
2023-05-17T16:33:27.778Z,13.60
2023-05-17T16:36:16.684Z,13.60
2023-05-17T16:39:07.255Z,13.50
2023-05-17T16:41:56.296Z,13.50
2023-05-17T16:44:45.168Z,13.50
2023-05-17T16:47:35.875Z,13.60
2023-05-17T16:50:24.902Z,13.60
2023-05-17T16:53:13.744Z,13.60
2023-05-17T16:56:03.521Z,13.50
2023-05-17T16:58:52.624Z,13.40
2023-05-17T17:01:41.709Z,13.40
2023-05-17T17:04:35.878Z,13.50
2023-05-17T17:07:24.817Z,13.40
2023-05-17T17:10:13.819Z,13.40
2023-05-17T17:13:03.651Z,13.50
2023-05-17T17:15:52.774Z,13.60
2023-05-17T17:18:41.883Z,13.50
2023-05-17T17:21:36.605Z,13.60
2023-05-17T17:24:25.533Z,13.60
2023-05-17T17:27:14.392Z,13.60
2023-05-17T17:30:03.599Z,13.60
2023-05-17T17:32:52.940Z,13.60
2023-05-17T17:35:41.844Z,13.50
2023-05-17T17:38:32.518Z,13.60
2023-05-17T17:41:21.368Z,13.50
2023-05-17T17:44:10.386Z,13.60
2023-05-17T17:46:59.105Z,13.50
2023-05-17T17:49:48.037Z,13.50
2023-05-17T17:52:37.411Z,13.50
2023-05-17T17:55:27.907Z,13.40
2023-05-17T17:58:16.880Z,13.40
2023-05-17T18:01:06.172Z,13.40
2023-05-17T18:03:55.127Z,13.40
2023-05-17T18:06:45.881Z,13.40
2023-05-17T18:09:34.794Z,13.40
2023-05-17T18:12:27.174Z,13.50
2023-05-17T18:15:16.000Z,13.50
2023-05-17T18:18:05.026Z,13.50
2023-05-17T18:20:54.249Z,13.50
2023-05-17T18:23:43.152Z,13.50
2023-05-17T18:26:32.263Z,13.50
2023-05-17T18:29:22.524Z,13.50
2023-05-17T18:32:11.783Z,13.50
2023-05-17T18:35:01.182Z,13.60
2023-05-17T18:37:49.961Z,13.50
2023-05-17T18:40:38.777Z,13.50
2023-05-17T18:43:27.562Z,13.50
2023-05-17T18:46:18.152Z,13.50
2023-05-17T18:49:06.811Z,13.50
2023-05-17T18:51:59.450Z,13.50
2023-05-17T18:54:48.599Z,13.50
2023-05-17T18:57:37.373Z,13.50
2023-05-17T19:00:26.547Z,13.50
2023-05-17T19:03:17.065Z,13.50
2023-05-17T19:06:05.953Z,13.50
2023-05-17T19:08:55.260Z,13.50
2023-05-17T19:11:44.360Z,13.50
2023-05-17T19:14:33.453Z,13.50
2023-05-17T19:17:22.671Z,13.50
2023-05-17T19:20:13.536Z,13.50
2023-05-17T19:23:02.349Z,13.40
2023-05-17T19:25:51.496Z,13.40
2023-05-17T19:28:40.490Z,13.40
2023-05-17T19:31:29.236Z,13.30
2023-05-17T19:34:21.812Z,13.20
2023-05-17T19:37:12.162Z,13.30
2023-05-17T19:40:01.132Z,13.20
2023-05-17T19:42:49.971Z,13.20
2023-05-17T19:45:39.587Z,13.20
2023-05-17T19:48:30.111Z,13.10
2023-05-17T19:51:19.212Z,13.20
2023-05-17T19:54:10.529Z,13.20
2023-05-17T19:56:59.775Z,13.00
2023-05-17T19:59:51.479Z,13.10
2023-05-17T20:02:41.173Z,13.00
2023-05-17T20:05:30.373Z,13.20
2023-05-17T20:08:19.666Z,13.20
2023-05-17T20:11:09.959Z,13.10
2023-05-17T20:13:58.810Z,13.00
2023-05-17T20:16:47.712Z,12.90
2023-05-17T20:19:38.381Z,12.80
2023-05-17T20:22:27.745Z,12.90
2023-05-17T20:25:16.534Z,12.90
2023-05-17T20:28:06.802Z,12.90
2023-05-17T20:30:56.643Z,12.90
2023-05-17T20:33:45.651Z,12.80
2023-05-17T20:36:34.431Z,12.90
2023-05-17T20:39:23.269Z,12.80
2023-05-17T20:42:18.276Z,12.80
2023-05-17T20:45:11.559Z,12.80
2023-05-17T20:48:01.791Z,12.90
2023-05-17T20:50:50.612Z,12.80
2023-05-17T20:53:40.185Z,13.00
2023-05-17T20:56:28.962Z,12.90
2023-05-17T20:59:17.787Z,12.70
2023-05-17T21:02:08.412Z,12.70
2023-05-17T21:04:57.524Z,12.70
2023-05-17T21:07:50.565Z,12.90
2023-05-17T21:10:40.784Z,12.80
2023-05-17T21:13:29.473Z,12.70
2023-05-17T21:16:18.820Z,12.70
2023-05-17T21:19:09.867Z,12.70
2023-05-17T21:21:58.734Z,12.70
2023-05-17T21:24:47.588Z,12.70
2023-05-17T21:27:36.371Z,12.70
2023-05-17T21:30:27.638Z,12.60
2023-05-17T21:33:16.419Z,12.50
2023-05-17T21:36:07.056Z,12.40
2023-05-17T21:38:56.110Z,12.40
2023-05-17T21:41:45.090Z,12.40
2023-05-17T21:44:34.034Z,12.30
2023-05-17T21:47:24.039Z,12.20
2023-05-17T21:50:12.917Z,12.10
2023-05-17T21:53:03.529Z,12.20
2023-05-17T21:56:02.043Z,12.10
2023-05-17T21:58:52.997Z,12.00
2023-05-17T22:01:42.010Z,11.90
2023-05-17T22:04:31.545Z,11.80
2023-05-17T22:07:20.340Z,11.70
2023-05-17T22:10:11.374Z,11.70
2023-05-17T22:13:02.175Z,11.50
2023-05-17T22:15:50.979Z,11.70
2023-05-17T22:18:39.833Z,11.70
2023-05-17T22:21:28.778Z,11.70
2023-05-17T22:24:17.697Z,11.50
2023-05-17T22:27:08.907Z,11.40
2023-05-17T22:29:58.354Z,11.30
2023-05-17T22:32:47.249Z,11.20
2023-05-17T22:35:36.267Z,11.40
2023-05-17T22:38:25.146Z,11.40
2023-05-17T22:41:14.534Z,11.20
2023-05-17T22:44:04.820Z,11.10
2023-05-17T22:46:53.810Z,11.10
2023-05-17T22:49:42.786Z,11.20
2023-05-17T22:52:31.594Z,11.10
2023-05-17T22:55:20.297Z,11.20
2023-05-17T22:58:09.255Z,11.20
2023-05-17T23:00:59.463Z,11.10
2023-05-17T23:03:48.329Z,10.90
2023-05-17T23:06:38.292Z,10.90
2023-05-17T23:09:27.511Z,10.90
2023-05-17T23:12:17.433Z,10.80
2023-05-17T23:15:07.581Z,10.70
2023-05-17T23:17:59.676Z,10.70
2023-05-17T23:20:49.134Z,10.70
2023-05-17T23:23:40.735Z,10.80
2023-05-17T23:26:29.788Z,11.00
2023-05-17T23:29:19.097Z,11.00
2023-05-17T23:32:08.036Z,10.90
2023-05-17T23:35:03.785Z,10.70
2023-05-17T23:37:52.828Z,10.90
2023-05-17T23:40:41.896Z,11.00
2023-05-17T23:43:30.873Z,10.80
2023-05-17T23:46:22.507Z,10.90
2023-05-17T23:49:11.297Z,10.90
2023-05-17T23:52:02.242Z,10.70
2023-05-17T23:54:51.521Z,10.50
2023-05-17T23:57:42.519Z,10.70
